createdAt,value
2018-03-14T00:28:12.747Z,88.90
2018-03-14T00:45:34.948Z,90.30
2018-03-14T00:48:10.124Z,91.40
2018-03-14T00:53:19.246Z,90.60
2018-03-14T00:55:48.220Z,90.80
2018-03-14T00:58:18.371Z,90.40
2018-03-14T01:00:50.442Z,90.60
2018-03-14T01:03:25.413Z,90.20
2018-03-14T01:05:55.718Z,91.30
2018-03-14T01:08:27.468Z,91.30
2018-03-14T01:10:56.144Z,91.70
2018-03-14T01:13:24.515Z,91.60
2018-03-14T01:16:01.146Z,91.60
2018-03-14T01:18:31.332Z,91.50
2018-03-14T01:21:00.836Z,90.20
2018-03-14T01:23:31.787Z,91.00
2018-03-14T01:26:03.711Z,91.00
2018-03-14T01:28:31.655Z,91.90
2018-03-14T01:31:05.693Z,92.10
2018-03-14T01:33:39.666Z,90.40
2018-03-14T01:36:15.432Z,90.80
2018-03-14T01:38:47.294Z,90.40
2018-03-14T01:41:16.638Z,91.00
2018-03-14T01:43:53.721Z,90.60
2018-03-14T01:46:21.356Z,91.10
2018-03-14T01:48:50.859Z,91.50
2018-03-14T01:51:22.303Z,91.40
2018-03-14T01:53:51.211Z,92.00
2018-03-14T01:56:22.725Z,92.50
2018-03-14T01:58:53.477Z,93.20
2018-03-14T02:01:28.226Z,92.50
2018-03-14T02:03:57.876Z,92.30
2018-03-14T02:06:26.982Z,92.80
2018-03-14T02:08:59.658Z,91.70
2018-03-14T02:11:30.568Z,91.70
2018-03-14T02:14:01.766Z,91.90
2018-03-14T02:16:32.787Z,90.70
2018-03-14T02:19:05.367Z,91.40
2018-03-14T02:21:34.431Z,91.50
2018-03-14T02:24:10.794Z,91.50
2018-03-14T02:26:40.314Z,90.50
2018-03-14T02:29:09.862Z,90.50
2018-03-14T02:31:38.835Z,90.50
2018-03-14T02:34:07.458Z,91.00
2018-03-14T02:36:48.891Z,91.00
2018-03-14T02:39:19.134Z,91.20
2018-03-14T02:41:49.994Z,91.20
2018-03-14T02:44:23.793Z,91.30
2018-03-14T02:46:51.430Z,91.30
2018-03-14T02:49:19.051Z,91.70
2018-03-14T02:51:48.665Z,91.40
2018-03-14T02:54:18.801Z,91.70
2018-03-14T02:56:46.645Z,91.70
2018-03-14T02:59:14.211Z,92.30
2018-03-14T03:01:42.626Z,92.40
2018-03-14T03:04:12.418Z,91.60
2018-03-14T03:06:46.650Z,91.60
2018-03-14T03:09:18.479Z,92.50
2018-03-14T03:11:48.344Z,92.50
2018-03-14T03:14:17.456Z,91.90
2018-03-14T03:16:46.903Z,91.30
2018-03-14T03:19:16.185Z,91.10
2018-03-14T03:21:45.761Z,90.70
2018-03-14T03:24:13.330Z,91.10
2018-03-14T03:26:42.633Z,91.30
2018-03-14T03:29:13.423Z,91.00
2018-03-14T03:31:46.256Z,91.00
2018-03-14T03:34:15.771Z,91.00
2018-03-14T03:36:48.233Z,91.30
2018-03-14T03:39:15.805Z,90.80
2018-03-14T03:41:43.469Z,91.50
2018-03-14T03:44:11.113Z,91.00
2018-03-14T03:46:38.756Z,90.90
2018-03-14T03:49:06.407Z,91.30
2018-03-14T03:51:34.368Z,91.20
2018-03-14T03:54:01.989Z,91.20
2018-03-14T03:56:29.619Z,91.20
2018-03-14T03:58:57.208Z,91.00
2018-03-14T04:01:24.883Z,91.30
2018-03-14T04:03:52.603Z,92.00
2018-03-14T04:06:20.211Z,91.50
2018-03-14T04:08:48.799Z,90.90
2018-03-14T04:11:18.837Z,90.80
2018-03-14T04:13:49.551Z,90.40
2018-03-14T04:16:20.738Z,90.50
2018-03-14T04:18:49.507Z,90.70
2018-03-14T04:21:19.221Z,91.90
2018-03-14T04:23:48.319Z,91.90
2018-03-14T04:26:15.985Z,91.10
2018-03-14T04:28:43.601Z,91.30
2018-03-14T04:31:11.274Z,92.10
2018-03-14T04:33:38.845Z,92.30
2018-03-14T04:36:06.821Z,93.00
2018-03-14T04:38:34.851Z,93.30
2018-03-14T04:41:03.215Z,93.70
2018-03-14T04:43:30.814Z,93.70
2018-03-14T04:45:58.407Z,93.40
2018-03-14T04:48:26.073Z,93.40
2018-03-14T04:50:53.901Z,94.20
2018-03-14T04:53:21.490Z,93.70
2018-03-14T04:55:49.091Z,94.00
2018-03-14T04:58:16.708Z,94.20
2018-03-14T05:00:44.314Z,94.30
2018-03-14T05:03:11.918Z,94.70
2018-03-14T05:05:39.999Z,94.90
2018-03-14T05:08:07.975Z,94.70
2018-03-14T05:10:36.589Z,94.70
2018-03-14T05:13:09.698Z,95.60
2018-03-14T05:15:38.325Z,95.80
2018-03-14T05:18:06.722Z,96.20
2018-03-14T05:20:35.146Z,96.20
2018-03-14T05:23:03.504Z,96.00
2018-03-14T05:25:32.316Z,97.00
2018-03-14T05:28:01.271Z,97.20
2018-03-14T05:30:29.837Z,97.20
2018-03-14T05:32:58.230Z,97.10
2018-03-14T05:35:26.674Z,97.10
2018-03-14T05:37:55.223Z,97.10
2018-03-14T05:40:23.726Z,97.20
2018-03-14T05:42:52.523Z,95.80
2018-03-14T05:45:20.833Z,95.80
2018-03-14T05:47:49.255Z,95.20
2018-03-14T05:50:18.693Z,95.10
2018-03-14T05:52:47.461Z,94.30
2018-03-14T06:07:26.240Z,94.50
2018-03-14T07:14:49.959Z,89.90
2018-03-14T07:17:17.624Z,89.00
2018-03-14T07:19:45.238Z,89.20
2018-03-14T07:22:12.882Z,89.10
2018-03-14T07:24:41.603Z,88.80
2018-03-14T07:27:09.239Z,88.80
2018-03-14T07:29:37.749Z,87.90
2018-03-14T07:32:05.458Z,88.40
2018-03-14T07:34:33.441Z,87.70
2018-03-14T07:37:01.064Z,87.60
2018-03-14T07:39:28.739Z,86.50
2018-03-14T07:41:56.336Z,86.40
2018-03-14T07:44:24.367Z,86.10
2018-03-14T07:46:53.274Z,86.10
2018-03-14T07:49:23.215Z,85.20
2018-03-14T07:51:51.531Z,85.20
2018-03-14T07:54:36.722Z,85.70
2018-03-14T07:57:04.318Z,86.00
2018-03-14T07:59:35.411Z,86.10
2018-03-14T08:02:12.834Z,85.40
2018-03-14T08:04:54.517Z,83.90
2018-03-14T08:07:24.697Z,83.90
2018-03-14T08:09:56.137Z,82.90
2018-03-14T08:12:27.334Z,82.90
2018-03-14T08:15:06.906Z,83.90
2018-03-14T08:17:40.639Z,83.90
2018-03-14T08:20:18.190Z,83.10
2018-03-14T08:22:54.260Z,82.60
2018-03-14T08:25:24.527Z,81.80
2018-03-14T08:28:27.154Z,81.90
2018-03-14T08:33:49.804Z,80.60
2018-03-14T08:36:20.309Z,80.40
2018-03-14T08:38:48.354Z,79.60
2018-03-14T08:41:16.696Z,79.60
2018-03-14T08:43:47.152Z,76.60
2018-03-14T08:46:17.608Z,76.60
2018-03-14T08:48:45.286Z,77.70
2018-03-14T08:51:13.287Z,78.50
2018-03-14T08:53:41.752Z,78.60
2018-03-14T08:56:09.425Z,77.20
2018-03-14T08:58:37.373Z,76.80
2018-03-14T09:01:05.290Z,76.80
2018-03-14T09:03:33.620Z,76.90
2018-03-14T09:06:27.675Z,76.80
2018-03-14T09:09:14.453Z,76.80
2018-03-14T09:11:43.550Z,76.10
2018-03-14T09:20:54.124Z,70.90
2018-03-14T10:22:10.491Z,68.60
2018-03-14T10:24:46.813Z,68.90
2018-03-14T10:27:15.044Z,67.80
2018-03-14T10:29:43.220Z,67.30
2018-03-14T10:32:11.499Z,67.60
2018-03-14T10:34:40.105Z,67.50
2018-03-14T10:37:08.319Z,67.50
2018-03-14T10:39:37.228Z,66.30
2018-03-14T10:42:04.948Z,65.50
2018-03-14T10:50:13.950Z,58.70
2018-03-14T10:52:41.578Z,58.70
2018-03-14T10:55:09.541Z,57.60
2018-03-14T10:57:37.116Z,57.60
2018-03-14T11:00:05.598Z,57.40
2018-03-14T11:02:33.151Z,58.60
2018-03-14T11:05:00.696Z,58.50
2018-03-14T11:07:28.261Z,59.90
2018-03-14T11:09:56.406Z,61.20
2018-03-14T11:12:24.756Z,59.80
2018-03-14T11:14:52.331Z,59.80
2018-03-14T11:17:19.927Z,57.30
2018-03-14T11:19:49.170Z,54.70
2018-03-14T11:22:17.243Z,55.50
2018-03-14T11:24:45.452Z,52.50
2018-03-14T11:27:13.581Z,53.70
2018-03-14T12:54:00.568Z,32.50
2018-03-14T12:56:29.004Z,32.10
2018-03-14T12:58:57.466Z,31.60
2018-03-14T13:01:26.063Z,30.70
2018-03-14T13:03:54.550Z,31.70
2018-03-14T13:06:23.201Z,34.50
2018-03-14T13:08:52.081Z,37.30
2018-03-14T13:11:21.877Z,41.10
2018-03-14T13:13:50.313Z,41.10
2018-03-14T13:16:18.688Z,38.10
2018-03-14T13:18:47.166Z,33.80
2018-03-14T13:21:15.748Z,35.40
2018-03-14T13:23:44.318Z,37.20
2018-03-14T13:26:12.756Z,37.80
2018-03-14T13:28:41.667Z,43.10
2018-03-14T13:31:10.526Z,42.80
2018-03-14T13:33:39.077Z,42.80
2018-03-14T13:36:07.496Z,41.10
2018-03-14T13:38:36.231Z,45.30
2018-03-14T13:41:04.734Z,45.30
2018-03-14T13:43:33.106Z,45.00
2018-03-14T13:46:02.066Z,45.50
2018-03-14T13:48:29.870Z,43.30
2018-03-14T13:50:58.302Z,42.40
2018-03-14T13:53:26.436Z,38.70
2018-03-14T13:55:54.090Z,38.70
2018-03-14T13:58:22.787Z,44.20
2018-03-14T14:00:50.766Z,44.20
2018-03-14T14:03:18.441Z,45.40
2018-03-14T14:05:46.275Z,48.30
2018-03-14T14:08:14.464Z,48.00
2018-03-14T14:10:42.362Z,48.60
2018-03-14T14:13:10.164Z,51.00
2018-03-14T14:15:37.762Z,50.20
2018-03-14T14:18:05.354Z,51.40
2018-03-14T14:20:32.986Z,49.80
2018-03-14T14:23:00.565Z,47.90
2018-03-14T14:25:28.138Z,49.50
2018-03-14T14:27:55.704Z,51.30
2018-03-14T14:30:23.313Z,48.90
2018-03-14T14:32:50.878Z,49.70
2018-03-14T14:35:19.491Z,48.10
2018-03-14T14:37:47.777Z,46.60
2018-03-14T14:40:15.472Z,47.20
2018-03-14T14:42:43.062Z,45.50
2018-03-14T14:45:11.300Z,46.20
2018-03-14T14:47:39.443Z,46.10
2018-03-14T14:50:07.208Z,46.30
2018-03-14T14:52:35.203Z,44.30
2018-03-14T14:55:02.913Z,42.80
2018-03-14T14:57:30.720Z,40.00
2018-03-14T14:59:59.760Z,39.60
2018-03-14T15:02:28.030Z,41.00
2018-03-14T15:04:56.251Z,41.00
2018-03-14T15:07:24.652Z,41.00
2018-03-14T15:09:52.455Z,41.00
2018-03-14T15:12:20.027Z,40.40
2018-03-14T15:14:47.602Z,40.30
2018-03-14T15:17:15.162Z,39.00
2018-03-14T15:19:43.149Z,38.30
2018-03-14T15:22:10.755Z,38.00
2018-03-14T15:24:38.719Z,37.10
2018-03-14T15:27:06.814Z,36.90
2018-03-14T15:29:34.418Z,36.90
2018-03-14T15:32:02.940Z,36.30
2018-03-14T15:34:30.888Z,35.40
2018-03-14T15:36:58.462Z,35.40
2018-03-14T15:39:26.446Z,36.60
2018-03-14T15:41:54.037Z,36.60
2018-03-14T15:44:21.646Z,35.50
2018-03-14T15:46:50.190Z,37.30
2018-03-14T15:49:18.581Z,37.40
2018-03-14T15:51:46.193Z,38.50
2018-03-14T15:54:13.745Z,40.00
2018-03-14T15:56:42.225Z,40.40
2018-03-14T15:59:10.183Z,40.40
2018-03-14T16:01:38.503Z,40.50
2018-03-14T16:04:06.839Z,40.60
2018-03-14T16:06:34.831Z,42.70
2018-03-14T16:09:02.582Z,42.70
2018-03-14T16:11:30.085Z,41.40
2018-03-14T16:13:58.395Z,41.20
2018-03-14T16:16:26.150Z,41.90
2018-03-14T16:18:53.975Z,42.70
2018-03-14T16:21:22.449Z,43.40
2018-03-14T16:23:50.902Z,45.20
2018-03-14T16:26:19.997Z,51.60
2018-03-14T16:28:49.689Z,54.20
2018-03-14T16:31:18.225Z,54.20
2018-03-14T16:33:45.851Z,57.60
2018-03-14T16:36:15.105Z,58.70
2018-03-14T16:38:42.692Z,58.70
2018-03-14T16:41:13.195Z,59.80
2018-03-14T16:43:40.768Z,61.10
2018-03-14T16:46:09.752Z,61.70
2018-03-14T16:48:37.339Z,63.70
2018-03-14T16:51:04.937Z,64.90
2018-03-14T16:53:32.668Z,66.20
2018-03-14T16:56:00.670Z,66.90
2018-03-14T16:58:28.265Z,66.90
2018-03-14T17:00:55.837Z,67.90
2018-03-14T17:03:25.840Z,68.00
2018-03-14T17:05:54.036Z,68.10
2018-03-14T17:08:21.578Z,68.10
2018-03-14T17:10:49.702Z,67.60
2018-03-14T17:13:19.113Z,68.40
2018-03-14T17:15:46.708Z,69.50
2018-03-14T17:18:14.403Z,71.20
2018-03-14T17:20:42.414Z,72.30
2018-03-14T17:23:10.029Z,72.30
2018-03-14T17:25:39.214Z,73.50
2018-03-14T17:28:07.236Z,73.50
2018-03-14T17:30:34.921Z,73.70
2018-03-14T17:33:02.685Z,74.00
2018-03-14T17:35:30.249Z,74.40
2018-03-14T17:37:59.080Z,74.40
2018-03-14T17:40:26.683Z,74.40
2018-03-14T17:42:54.278Z,74.60
2018-03-14T17:45:21.911Z,75.00
2018-03-14T17:47:49.545Z,75.00
2018-03-14T17:50:17.141Z,75.30
2018-03-14T17:52:46.526Z,75.40
2018-03-14T17:55:14.248Z,75.40
2018-03-14T17:57:41.906Z,75.30
2018-03-14T18:00:09.579Z,75.50
2018-03-14T18:02:38.411Z,74.90
2018-03-14T18:05:09.539Z,74.90
2018-03-14T18:07:40.638Z,75.20
2018-03-14T18:10:10.109Z,75.30
2018-03-14T18:12:37.779Z,75.20
2018-03-14T18:15:05.424Z,75.60
2018-03-14T18:17:33.023Z,75.50
2018-03-14T18:20:01.498Z,75.40
2018-03-14T18:22:29.229Z,75.80
2018-03-14T18:24:57.975Z,75.80
2018-03-14T18:27:28.470Z,75.60
2018-03-14T18:29:57.299Z,76.20
2018-03-14T18:32:25.341Z,76.60
2018-03-14T18:34:54.659Z,76.60
2018-03-14T18:37:22.931Z,76.70
2018-03-14T18:39:50.566Z,76.70
2018-03-14T18:42:29.486Z,77.00
2018-03-14T18:44:58.903Z,77.20
2018-03-14T18:47:27.704Z,77.70
2018-03-14T18:49:56.177Z,77.70
2018-03-14T18:52:23.807Z,77.50
2018-03-14T18:54:56.795Z,77.80
2018-03-14T18:57:30.754Z,78.10
2018-03-14T19:00:03.852Z,78.00
2018-03-14T19:02:39.533Z,78.40
2018-03-14T19:05:16.509Z,78.40
2018-03-14T19:07:46.946Z,78.40
2018-03-14T19:10:24.842Z,78.80
2018-03-14T19:16:10.510Z,79.70
2018-03-14T20:09:47.896Z,84.20
2018-03-14T20:12:39.569Z,84.60
2018-03-14T20:15:10.312Z,85.00
2018-03-14T20:17:47.906Z,85.00
2018-03-14T20:20:25.033Z,85.10
2018-03-14T20:23:01.866Z,85.30
2018-03-14T20:26:01.367Z,85.50
2018-03-14T20:28:31.291Z,85.80
2018-03-14T20:31:03.227Z,85.60
2018-03-14T20:33:30.951Z,85.60
2018-03-14T20:35:59.325Z,86.00
2018-03-14T20:38:26.970Z,86.20
2018-03-14T20:40:55.466Z,86.40
2018-03-14T20:43:25.196Z,86.60
2018-03-14T20:45:53.023Z,86.80
2018-03-14T20:48:20.883Z,86.80
2018-03-14T20:50:48.508Z,86.90
2018-03-14T20:53:16.528Z,86.80
2018-03-14T20:55:48.687Z,87.10
2018-03-14T20:58:16.768Z,87.20
2018-03-14T21:00:45.989Z,87.40
2018-03-14T21:03:14.794Z,87.60
2018-03-14T21:05:46.767Z,87.70
2018-03-14T21:08:14.985Z,87.90
2018-03-14T21:10:45.032Z,87.90
2018-03-14T21:13:12.730Z,87.90
2018-03-14T21:15:41.698Z,88.00
2018-03-14T21:18:09.699Z,87.90
2018-03-14T23:22:19.922Z,91.20
